sensor_id;sensor_type;location;lat;lon;timestamp;temperature;humidity
318;DHT22;146;53.448;10.228;2023-02-21T00:01:44;9.30;14.40
318;DHT22;146;53.448;10.228;2023-02-21T00:04:42;9.40;14.30
318;DHT22;146;53.448;10.228;2023-02-21T00:07:28;9.40;14.40
318;DHT22;146;53.448;10.228;2023-02-21T00:10:14;9.40;14.30
318;DHT22;146;53.448;10.228;2023-02-21T00:13:04;9.30;14.30
318;DHT22;146;53.448;10.228;2023-02-21T00:16:07;9.30;14.30
318;DHT22;146;53.448;10.228;2023-02-21T00:18:58;9.30;14.40
318;DHT22;146;53.448;10.228;2023-02-21T00:21:45;9.30;14.40
318;DHT22;146;53.448;10.228;2023-02-21T00:24:46;9.30;14.50
318;DHT22;146;53.448;10.228;2023-02-21T00:27:39;9.30;14.50
318;DHT22;146;53.448;10.228;2023-02-21T00:30:29;9.30;14.50
318;DHT22;146;53.448;10.228;2023-02-21T00:33:23;9.30;14.50
318;DHT22;146;53.448;10.228;2023-02-21T00:36:15;9.30;14.40
318;DHT22;146;53.448;10.228;2023-02-21T00:39:12;9.30;14.40
318;DHT22;146;53.448;10.228;2023-02-21T00:42:02;9.20;14.40
318;DHT22;146;53.448;10.228;2023-02-21T00:44:47;9.20;14.40
318;DHT22;146;53.448;10.228;2023-02-21T00:47:32;9.30;14.40
318;DHT22;146;53.448;10.228;2023-02-21T00:50:16;9.20;14.30
318;DHT22;146;53.448;10.228;2023-02-21T01:03:05;9.10;14.40
318;DHT22;146;53.448;10.228;2023-02-21T01:05:51;9.00;14.30
318;DHT22;146;53.448;10.228;2023-02-21T01:08:36;9.00;14.40
318;DHT22;146;53.448;10.228;2023-02-21T01:11:27;9.00;14.40
318;DHT22;146;53.448;10.228;2023-02-21T01:14:15;9.00;14.40
318;DHT22;146;53.448;10.228;2023-02-21T01:17:00;9.00;14.40
318;DHT22;146;53.448;10.228;2023-02-21T01:19:46;9.00;14.50
318;DHT22;146;53.448;10.228;2023-02-21T01:22:36;9.00;14.50
318;DHT22;146;53.448;10.228;2023-02-21T01:25:28;9.00;14.50
318;DHT22;146;53.448;10.228;2023-02-21T01:28:17;9.00;14.50
318;DHT22;146;53.448;10.228;2023-02-21T01:31:02;9.10;14.60
318;DHT22;146;53.448;10.228;2023-02-21T01:34:02;9.10;14.50
318;DHT22;146;53.448;10.228;2023-02-21T01:36:47;9.00;14.30
318;DHT22;146;53.448;10.228;2023-02-21T01:39:35;9.00;14.20
318;DHT22;146;53.448;10.228;2023-02-21T01:42:23;9.00;14.20
318;DHT22;146;53.448;10.228;2023-02-21T01:48:35;9.00;14.20
318;DHT22;146;53.448;10.228;2023-02-21T01:51:27;9.00;14.20
318;DHT22;146;53.448;10.228;2023-02-21T01:54:22;9.00;14.20
318;DHT22;146;53.448;10.228;2023-02-21T01:57:18;9.00;14.20
318;DHT22;146;53.448;10.228;2023-02-21T02:00:08;9.00;14.20
318;DHT22;146;53.448;10.228;2023-02-21T02:03:05;9.00;14.20
318;DHT22;146;53.448;10.228;2023-02-21T02:05:55;9.10;14.40
318;DHT22;146;53.448;10.228;2023-02-21T02:08:49;9.00;14.20
318;DHT22;146;53.448;10.228;2023-02-21T02:11:47;9.00;14.10
318;DHT22;146;53.448;10.228;2023-02-21T02:15:24;9.00;14.00
318;DHT22;146;53.448;10.228;2023-02-21T02:18:21;9.10;14.10
318;DHT22;146;53.448;10.228;2023-02-21T02:27:40;9.00;14.00
318;DHT22;146;53.448;10.228;2023-02-21T02:34:02;8.90;14.10
318;DHT22;146;53.448;10.228;2023-02-21T02:36:41;8.90;14.20
318;DHT22;146;53.448;10.228;2023-02-21T02:39:31;8.90;14.20
318;DHT22;146;53.448;10.228;2023-02-21T02:42:18;8.90;14.20
318;DHT22;146;53.448;10.228;2023-02-21T02:45:11;8.90;14.10
318;DHT22;146;53.448;10.228;2023-02-21T02:47:55;8.90;14.10
318;DHT22;146;53.448;10.228;2023-02-21T02:50:30;8.80;14.10
318;DHT22;146;53.448;10.228;2023-02-21T02:53:01;8.80;14.10
318;DHT22;146;53.448;10.228;2023-02-21T02:55:38;8.80;14.20
318;DHT22;146;53.448;10.228;2023-02-21T02:58:09;8.80;14.30
318;DHT22;146;53.448;10.228;2023-02-21T03:00:47;8.80;14.30
318;DHT22;146;53.448;10.228;2023-02-21T03:03:45;8.80;14.30
318;DHT22;146;53.448;10.228;2023-02-21T03:06:33;8.80;14.30
318;DHT22;146;53.448;10.228;2023-02-21T03:09:23;8.80;14.30
318;DHT22;146;53.448;10.228;2023-02-21T03:12:16;8.80;14.30
318;DHT22;146;53.448;10.228;2023-02-21T03:15:02;8.80;14.30
318;DHT22;146;53.448;10.228;2023-02-21T03:17:39;8.80;14.30
318;DHT22;146;53.448;10.228;2023-02-21T03:20:10;8.80;14.20
318;DHT22;146;53.448;10.228;2023-02-21T03:22:39;8.80;14.20
318;DHT22;146;53.448;10.228;2023-02-21T03:25:17;8.90;14.20
318;DHT22;146;53.448;10.228;2023-02-21T03:27:45;8.90;14.00
318;DHT22;146;53.448;10.228;2023-02-21T03:30:16;8.80;14.00
318;DHT22;146;53.448;10.228;2023-02-21T03:32:46;8.80;14.10
318;DHT22;146;53.448;10.228;2023-02-21T03:35:18;8.80;14.00
318;DHT22;146;53.448;10.228;2023-02-21T03:37:47;8.70;14.00
318;DHT22;146;53.448;10.228;2023-02-21T03:40:19;8.70;14.00
318;DHT22;146;53.448;10.228;2023-02-21T03:42:50;8.70;14.00
318;DHT22;146;53.448;10.228;2023-02-21T03:45:17;8.70;14.00
318;DHT22;146;53.448;10.228;2023-02-21T03:47:59;8.80;14.10
318;DHT22;146;53.448;10.228;2023-02-21T03:50:26;8.80;14.00
318;DHT22;146;53.448;10.228;2023-02-21T03:52:58;8.70;13.90
318;DHT22;146;53.448;10.228;2023-02-21T03:55:27;8.70;13.90
318;DHT22;146;53.448;10.228;2023-02-21T03:58:11;8.70;14.00
318;DHT22;146;53.448;10.228;2023-02-21T04:00:41;8.70;14.00
318;DHT22;146;53.448;10.228;2023-02-21T04:03:14;8.60;14.00
318;DHT22;146;53.448;10.228;2023-02-21T04:05:42;8.60;14.10
318;DHT22;146;53.448;10.228;2023-02-21T04:08:15;8.60;14.10
318;DHT22;146;53.448;10.228;2023-02-21T04:10:50;8.60;14.10
318;DHT22;146;53.448;10.228;2023-02-21T04:13:18;8.60;14.10
318;DHT22;146;53.448;10.228;2023-02-21T04:15:48;8.60;14.10
318;DHT22;146;53.448;10.228;2023-02-21T04:18:15;8.60;14.10
318;DHT22;146;53.448;10.228;2023-02-21T04:20:42;8.60;14.10
318;DHT22;146;53.448;10.228;2023-02-21T04:23:10;8.60;14.00
318;DHT22;146;53.448;10.228;2023-02-21T04:25:43;8.50;14.00
318;DHT22;146;53.448;10.228;2023-02-21T04:28:16;8.50;14.00
318;DHT22;146;53.448;10.228;2023-02-21T04:30:43;8.50;14.00
318;DHT22;146;53.448;10.228;2023-02-21T04:33:20;8.50;14.00
318;DHT22;146;53.448;10.228;2023-02-21T04:35:47;8.60;14.10
318;DHT22;146;53.448;10.228;2023-02-21T04:38:18;8.50;13.90
318;DHT22;146;53.448;10.228;2023-02-21T04:40:44;8.50;13.90
318;DHT22;146;53.448;10.228;2023-02-21T04:43:16;8.50;14.00
318;DHT22;146;53.448;10.228;2023-02-21T04:45:45;8.50;14.00
318;DHT22;146;53.448;10.228;2023-02-21T04:48:15;8.50;13.80
318;DHT22;146;53.448;10.228;2023-02-21T04:50:43;8.50;13.70
318;DHT22;146;53.448;10.228;2023-02-21T04:53:11;8.50;13.70
318;DHT22;146;53.448;10.228;2023-02-21T04:56:03;8.50;13.70
318;DHT22;146;53.448;10.228;2023-02-21T04:58:32;8.60;13.80
318;DHT22;146;53.448;10.228;2023-02-21T05:01:02;8.60;13.70
318;DHT22;146;53.448;10.228;2023-02-21T05:03:31;8.60;13.60
318;DHT22;146;53.448;10.228;2023-02-21T05:06:02;8.50;13.30
318;DHT22;146;53.448;10.228;2023-02-21T05:08:32;8.40;13.30
318;DHT22;146;53.448;10.228;2023-02-21T05:11:11;8.40;13.40
318;DHT22;146;53.448;10.228;2023-02-21T05:13:43;8.40;13.30
318;DHT22;146;53.448;10.228;2023-02-21T05:16:13;8.40;13.30
318;DHT22;146;53.448;10.228;2023-02-21T05:18:41;8.40;13.30
318;DHT22;146;53.448;10.228;2023-02-21T05:21:08;8.40;13.20
318;DHT22;146;53.448;10.228;2023-02-21T05:23:45;8.40;13.20
318;DHT22;146;53.448;10.228;2023-02-21T05:26:32;8.40;13.20
318;DHT22;146;53.448;10.228;2023-02-21T05:29:00;8.40;13.20
318;DHT22;146;53.448;10.228;2023-02-21T05:31:28;8.40;13.10
318;DHT22;146;53.448;10.228;2023-02-21T05:34:10;8.40;12.90
318;DHT22;146;53.448;10.228;2023-02-21T05:36:43;8.30;12.80
318;DHT22;146;53.448;10.228;2023-02-21T05:39:10;8.30;12.60
318;DHT22;146;53.448;10.228;2023-02-21T05:41:46;8.30;12.40
318;DHT22;146;53.448;10.228;2023-02-21T05:44:15;8.20;12.00
318;DHT22;146;53.448;10.228;2023-02-21T05:46:45;8.10;11.50
318;DHT22;146;53.448;10.228;2023-02-21T05:49:13;8.00;10.70
318;DHT22;146;53.448;10.228;2023-02-21T05:51:52;8.00;10.20
318;DHT22;146;53.448;10.228;2023-02-21T05:54:31;8.00;9.90
318;DHT22;146;53.448;10.228;2023-02-21T05:57:07;8.00;9.50
318;DHT22;146;53.448;10.228;2023-02-21T05:59:37;8.10;9.10
318;DHT22;146;53.448;10.228;2023-02-21T06:02:14;8.00;8.40
318;DHT22;146;53.448;10.228;2023-02-21T06:04:53;8.10;8.10
318;DHT22;146;53.448;10.228;2023-02-21T06:07:37;8.00;7.00
318;DHT22;146;53.448;10.228;2023-02-21T06:10:06;7.90;6.30
318;DHT22;146;53.448;10.228;2023-02-21T06:12:39;8.00;5.60
318;DHT22;146;53.448;10.228;2023-02-21T06:15:40;7.90;4.80
318;DHT22;146;53.448;10.228;2023-02-21T06:18:15;7.90;4.40
318;DHT22;146;53.448;10.228;2023-02-21T06:20:44;7.90;4.00
318;DHT22;146;53.448;10.228;2023-02-21T06:23:14;7.90;3.60
318;DHT22;146;53.448;10.228;2023-02-21T06:25:50;8.00;3.70
318;DHT22;146;53.448;10.228;2023-02-21T06:28:54;7.90;2.90
318;DHT22;146;53.448;10.228;2023-02-21T06:31:48;7.90;1.00
318;DHT22;146;53.448;10.228;2023-02-21T06:34:18;7.90;1.00
318;DHT22;146;53.448;10.228;2023-02-21T06:37:34;7.90;1.00
318;DHT22;146;53.448;10.228;2023-02-21T06:40:07;7.90;1.00
318;DHT22;146;53.448;10.228;2023-02-21T06:42:37;7.90;1.00
318;DHT22;146;53.448;10.228;2023-02-21T06:45:08;8.00;1.00
318;DHT22;146;53.448;10.228;2023-02-21T06:47:38;8.00;1.00
318;DHT22;146;53.448;10.228;2023-02-21T06:50:08;8.00;1.00
318;DHT22;146;53.448;10.228;2023-02-21T06:52:35;8.00;1.00
318;DHT22;146;53.448;10.228;2023-02-21T06:55:02;7.90;1.00
318;DHT22;146;53.448;10.228;2023-02-21T06:57:29;8.00;1.00
318;DHT22;146;53.448;10.228;2023-02-21T06:59:55;8.00;1.00
318;DHT22;146;53.448;10.228;2023-02-21T07:02:25;8.00;1.00
318;DHT22;146;53.448;10.228;2023-02-21T07:04:54;8.00;1.00
318;DHT22;146;53.448;10.228;2023-02-21T07:07:38;7.90;1.00
318;DHT22;146;53.448;10.228;2023-02-21T07:10:17;7.90;1.00
318;DHT22;146;53.448;10.228;2023-02-21T07:13:01;7.90;1.00
318;DHT22;146;53.448;10.228;2023-02-21T07:15:30;7.90;1.00
318;DHT22;146;53.448;10.228;2023-02-21T07:18:00;7.90;1.00
318;DHT22;146;53.448;10.228;2023-02-21T07:20:34;7.90;1.00
318;DHT22;146;53.448;10.228;2023-02-21T07:23:00;8.00;1.00
318;DHT22;146;53.448;10.228;2023-02-21T07:25:27;8.00;1.00
318;DHT22;146;53.448;10.228;2023-02-21T07:28:07;8.00;1.00
318;DHT22;146;53.448;10.228;2023-02-21T07:30:34;8.00;1.00
318;DHT22;146;53.448;10.228;2023-02-21T07:33:03;8.10;1.00
318;DHT22;146;53.448;10.228;2023-02-21T07:35:31;8.10;1.00
318;DHT22;146;53.448;10.228;2023-02-21T07:38:16;8.10;1.00
318;DHT22;146;53.448;10.228;2023-02-21T07:40:52;8.20;1.00
318;DHT22;146;53.448;10.228;2023-02-21T07:43:23;8.20;1.00
318;DHT22;146;53.448;10.228;2023-02-21T07:45:55;8.20;1.00
318;DHT22;146;53.448;10.228;2023-02-21T07:48:28;8.30;1.00
318;DHT22;146;53.448;10.228;2023-02-21T07:50:55;8.40;1.00
318;DHT22;146;53.448;10.228;2023-02-21T07:53:31;8.40;1.00
318;DHT22;146;53.448;10.228;2023-02-21T07:55:58;8.40;1.00
318;DHT22;146;53.448;10.228;2023-02-21T07:58:30;8.40;1.00
318;DHT22;146;53.448;10.228;2023-02-21T08:01:05;8.50;1.00
318;DHT22;146;53.448;10.228;2023-02-21T08:06:18;8.50;1.00
318;DHT22;146;53.448;10.228;2023-02-21T08:08:46;8.40;1.00
318;DHT22;146;53.448;10.228;2023-02-21T08:11:16;8.40;1.00
318;DHT22;146;53.448;10.228;2023-02-21T08:13:43;8.40;1.00
318;DHT22;146;53.448;10.228;2023-02-21T08:16:13;8.40;1.00
318;DHT22;146;53.448;10.228;2023-02-21T08:18:46;8.40;1.00
318;DHT22;146;53.448;10.228;2023-02-21T08:21:15;8.40;1.00
318;DHT22;146;53.448;10.228;2023-02-21T08:23:55;8.40;1.00
318;DHT22;146;53.448;10.228;2023-02-21T08:26:28;8.50;1.00
318;DHT22;146;53.448;10.228;2023-02-21T08:28:55;8.50;1.00
318;DHT22;146;53.448;10.228;2023-02-21T08:31:28;8.50;1.00
318;DHT22;146;53.448;10.228;2023-02-21T08:33:54;8.50;1.00
318;DHT22;146;53.448;10.228;2023-02-21T08:36:30;8.60;1.00
318;DHT22;146;53.448;10.228;2023-02-21T08:39:06;8.60;1.00
318;DHT22;146;53.448;10.228;2023-02-21T08:41:45;8.70;1.00
318;DHT22;146;53.448;10.228;2023-02-21T08:44:15;8.70;1.00
318;DHT22;146;53.448;10.228;2023-02-21T08:46:56;8.80;1.00
318;DHT22;146;53.448;10.228;2023-02-21T08:49:32;8.80;1.00
318;DHT22;146;53.448;10.228;2023-02-21T08:52:01;9.00;1.00
318;DHT22;146;53.448;10.228;2023-02-21T08:54:35;8.90;1.00
318;DHT22;146;53.448;10.228;2023-02-21T08:57:05;8.90;1.00
318;DHT22;146;53.448;10.228;2023-02-21T08:59:41;8.90;1.00
318;DHT22;146;53.448;10.228;2023-02-21T09:02:15;9.00;1.00
318;DHT22;146;53.448;10.228;2023-02-21T09:04:46;9.00;1.00
318;DHT22;146;53.448;10.228;2023-02-21T09:07:14;9.00;1.00
318;DHT22;146;53.448;10.228;2023-02-21T09:09:49;9.10;1.00
318;DHT22;146;53.448;10.228;2023-02-21T09:12:16;9.20;1.00
318;DHT22;146;53.448;10.228;2023-02-21T09:14:47;9.20;1.00
318;DHT22;146;53.448;10.228;2023-02-21T09:17:17;9.30;1.00
318;DHT22;146;53.448;10.228;2023-02-21T09:19:47;9.40;1.00
318;DHT22;146;53.448;10.228;2023-02-21T09:22:17;9.50;1.00
318;DHT22;146;53.448;10.228;2023-02-21T09:24:46;9.50;1.00
318;DHT22;146;53.448;10.228;2023-02-21T09:27:14;9.50;1.00
318;DHT22;146;53.448;10.228;2023-02-21T09:29:49;9.50;1.00
318;DHT22;146;53.448;10.228;2023-02-21T09:32:15;9.50;1.00
318;DHT22;146;53.448;10.228;2023-02-21T09:34:42;9.60;1.00
318;DHT22;146;53.448;10.228;2023-02-21T09:37:14;9.60;1.00
318;DHT22;146;53.448;10.228;2023-02-21T09:39:43;9.50;1.00
318;DHT22;146;53.448;10.228;2023-02-21T09:42:15;9.60;1.00
318;DHT22;146;53.448;10.228;2023-02-21T09:44:43;9.70;1.00
318;DHT22;146;53.448;10.228;2023-02-21T09:47:16;9.70;1.00
318;DHT22;146;53.448;10.228;2023-02-21T09:49:47;9.80;1.00
318;DHT22;146;53.448;10.228;2023-02-21T09:52:20;9.70;1.00
318;DHT22;146;53.448;10.228;2023-02-21T09:54:57;9.80;1.00
318;DHT22;146;53.448;10.228;2023-02-21T09:57:41;9.80;1.00
318;DHT22;146;53.448;10.228;2023-02-21T10:00:20;9.80;1.00
318;DHT22;146;53.448;10.228;2023-02-21T10:03:02;9.90;1.00
318;DHT22;146;53.448;10.228;2023-02-21T10:05:41;10.00;1.00
318;DHT22;146;53.448;10.228;2023-02-21T10:08:21;10.10;1.00
318;DHT22;146;53.448;10.228;2023-02-21T10:10:53;10.10;1.00
318;DHT22;146;53.448;10.228;2023-02-21T10:13:33;10.10;1.00
318;DHT22;146;53.448;10.228;2023-02-21T10:16:07;10.00;1.00
318;DHT22;146;53.448;10.228;2023-02-21T10:18:51;10.10;1.00
318;DHT22;146;53.448;10.228;2023-02-21T10:21:36;10.10;1.00
318;DHT22;146;53.448;10.228;2023-02-21T10:24:12;10.10;1.00
318;DHT22;146;53.448;10.228;2023-02-21T10:26:49;10.00;1.00
318;DHT22;146;53.448;10.228;2023-02-21T10:29:25;10.10;1.00
318;DHT22;146;53.448;10.228;2023-02-21T10:31:59;10.20;1.00
318;DHT22;146;53.448;10.228;2023-02-21T10:34:29;10.20;1.00
318;DHT22;146;53.448;10.228;2023-02-21T10:37:10;10.20;1.00
318;DHT22;146;53.448;10.228;2023-02-21T10:39:49;10.20;1.00
318;DHT22;146;53.448;10.228;2023-02-21T10:42:32;10.20;1.00
318;DHT22;146;53.448;10.228;2023-02-21T10:45:10;10.30;1.00
318;DHT22;146;53.448;10.228;2023-02-21T10:47:50;10.40;1.00
318;DHT22;146;53.448;10.228;2023-02-21T10:50:48;10.40;1.00
318;DHT22;146;53.448;10.228;2023-02-21T10:53:32;10.40;1.00
318;DHT22;146;53.448;10.228;2023-02-21T10:59:24;10.50;1.00
318;DHT22;146;53.448;10.228;2023-02-21T11:01:54;10.50;1.00
318;DHT22;146;53.448;10.228;2023-02-21T11:04:33;10.50;1.00
318;DHT22;146;53.448;10.228;2023-02-21T11:07:07;10.60;1.00
318;DHT22;146;53.448;10.228;2023-02-21T11:09:43;10.70;1.00
318;DHT22;146;53.448;10.228;2023-02-21T11:12:20;10.70;1.00
318;DHT22;146;53.448;10.228;2023-02-21T11:15:15;10.80;1.00
318;DHT22;146;53.448;10.228;2023-02-21T11:18:02;11.00;1.00
318;DHT22;146;53.448;10.228;2023-02-21T11:20:29;10.90;1.00
318;DHT22;146;53.448;10.228;2023-02-21T11:22:59;11.10;1.00
318;DHT22;146;53.448;10.228;2023-02-21T11:25:28;11.10;1.00
318;DHT22;146;53.448;10.228;2023-02-21T11:28:05;11.00;1.00
318;DHT22;146;53.448;10.228;2023-02-21T11:30:37;11.00;1.00
318;DHT22;146;53.448;10.228;2023-02-21T11:33:07;11.00;1.00
318;DHT22;146;53.448;10.228;2023-02-21T11:35:42;11.00;1.00
318;DHT22;146;53.448;10.228;2023-02-21T11:38:30;11.00;1.00
318;DHT22;146;53.448;10.228;2023-02-21T11:41:15;11.00;1.00
318;DHT22;146;53.448;10.228;2023-02-21T11:43:45;10.90;1.00
318;DHT22;146;53.448;10.228;2023-02-21T11:46:38;10.90;1.00
318;DHT22;146;53.448;10.228;2023-02-21T11:49:37;10.70;1.00
318;DHT22;146;53.448;10.228;2023-02-21T11:52:25;10.80;1.00
318;DHT22;146;53.448;10.228;2023-02-21T11:54:56;10.70;1.00
318;DHT22;146;53.448;10.228;2023-02-21T11:57:31;10.70;1.00
318;DHT22;146;53.448;10.228;2023-02-21T12:00:26;10.60;1.00
318;DHT22;146;53.448;10.228;2023-02-21T12:03:20;10.60;1.00
318;DHT22;146;53.448;10.228;2023-02-21T12:05:56;10.60;1.00
318;DHT22;146;53.448;10.228;2023-02-21T12:08:39;10.60;1.00
318;DHT22;146;53.448;10.228;2023-02-21T12:11:35;10.50;1.00
318;DHT22;146;53.448;10.228;2023-02-21T12:14:27;10.50;1.00
318;DHT22;146;53.448;10.228;2023-02-21T12:17:41;10.50;1.00
318;DHT22;146;53.448;10.228;2023-02-21T12:20:36;10.40;1.00
318;DHT22;146;53.448;10.228;2023-02-21T12:23:17;10.30;1.00
318;DHT22;146;53.448;10.228;2023-02-21T12:26:09;10.30;1.00
318;DHT22;146;53.448;10.228;2023-02-21T12:29:05;10.30;1.00
318;DHT22;146;53.448;10.228;2023-02-21T12:32:04;10.30;1.00
318;DHT22;146;53.448;10.228;2023-02-21T12:34:48;10.20;1.00
318;DHT22;146;53.448;10.228;2023-02-21T12:37:44;10.10;1.00
318;DHT22;146;53.448;10.228;2023-02-21T12:40:35;10.10;1.00
318;DHT22;146;53.448;10.228;2023-02-21T12:43:28;10.20;1.00
318;DHT22;146;53.448;10.228;2023-02-21T12:46:11;10.20;1.00
318;DHT22;146;53.448;10.228;2023-02-21T12:48:58;10.30;1.00
318;DHT22;146;53.448;10.228;2023-02-21T12:51:38;10.40;1.00
318;DHT22;146;53.448;10.228;2023-02-21T12:54:13;10.40;1.00
318;DHT22;146;53.448;10.228;2023-02-21T12:56:54;10.40;1.00
318;DHT22;146;53.448;10.228;2023-02-21T12:59:29;10.30;1.00
318;DHT22;146;53.448;10.228;2023-02-21T13:02:14;10.30;1.00
318;DHT22;146;53.448;10.228;2023-02-21T13:04:46;10.30;1.00
318;DHT22;146;53.448;10.228;2023-02-21T13:07:21;10.30;1.00
318;DHT22;146;53.448;10.228;2023-02-21T13:09:59;10.30;1.00
318;DHT22;146;53.448;10.228;2023-02-21T13:12:36;10.30;1.00
318;DHT22;146;53.448;10.228;2023-02-21T13:15:15;10.20;1.00
318;DHT22;146;53.448;10.228;2023-02-21T13:17:53;10.20;1.00
318;DHT22;146;53.448;10.228;2023-02-21T13:20:25;10.20;1.00
318;DHT22;146;53.448;10.228;2023-02-21T13:26:40;10.20;1.00
318;DHT22;146;53.448;10.228;2023-02-21T13:29:19;10.10;1.00
318;DHT22;146;53.448;10.228;2023-02-21T13:31:47;10.10;1.00
318;DHT22;146;53.448;10.228;2023-02-21T13:34:28;10.20;1.00
318;DHT22;146;53.448;10.228;2023-02-21T13:37:06;10.30;1.00
318;DHT22;146;53.448;10.228;2023-02-21T13:39:34;10.30;1.00
318;DHT22;146;53.448;10.228;2023-02-21T13:42:10;10.30;1.00
318;DHT22;146;53.448;10.228;2023-02-21T13:44:45;10.40;1.00
318;DHT22;146;53.448;10.228;2023-02-21T13:47:18;10.40;1.00
318;DHT22;146;53.448;10.228;2023-02-21T13:49:57;10.50;1.00
318;DHT22;146;53.448;10.228;2023-02-21T13:52:51;10.50;1.00
318;DHT22;146;53.448;10.228;2023-02-21T13:55:33;10.50;1.00
318;DHT22;146;53.448;10.228;2023-02-21T13:58:42;10.50;1.00
318;DHT22;146;53.448;10.228;2023-02-21T14:08:00;10.30;1.00
318;DHT22;146;53.448;10.228;2023-02-21T14:10:40;10.30;1.00
318;DHT22;146;53.448;10.228;2023-02-21T14:13:23;10.30;1.00
318;DHT22;146;53.448;10.228;2023-02-21T14:15:57;10.40;1.00
318;DHT22;146;53.448;10.228;2023-02-21T14:18:26;10.40;1.00
318;DHT22;146;53.448;10.228;2023-02-21T14:21:01;10.30;1.00
318;DHT22;146;53.448;10.228;2023-02-21T14:23:47;10.40;1.00
318;DHT22;146;53.448;10.228;2023-02-21T14:26:41;10.40;1.00
318;DHT22;146;53.448;10.228;2023-02-21T14:29:33;10.40;1.00
318;DHT22;146;53.448;10.228;2023-02-21T14:32:31;10.40;1.00
318;DHT22;146;53.448;10.228;2023-02-21T14:35:00;10.40;1.00
318;DHT22;146;53.448;10.228;2023-02-21T14:37:54;10.40;1.00
318;DHT22;146;53.448;10.228;2023-02-21T14:40:30;10.30;1.00
318;DHT22;146;53.448;10.228;2023-02-21T14:49:50;10.40;1.00
318;DHT22;146;53.448;10.228;2023-02-21T14:52:39;10.40;1.00
318;DHT22;146;53.448;10.228;2023-02-21T14:55:38;10.30;1.00
318;DHT22;146;53.448;10.228;2023-02-21T15:01:57;10.20;1.00
318;DHT22;146;53.448;10.228;2023-02-21T15:04:36;10.10;1.00
318;DHT22;146;53.448;10.228;2023-02-21T15:07:19;10.10;1.00
318;DHT22;146;53.448;10.228;2023-02-21T15:10:13;10.00;1.00
318;DHT22;146;53.448;10.228;2023-02-21T15:12:52;10.00;1.00
318;DHT22;146;53.448;10.228;2023-02-21T15:15:34;9.90;1.00
318;DHT22;146;53.448;10.228;2023-02-21T15:18:07;9.90;1.00
318;DHT22;146;53.448;10.228;2023-02-21T15:20:35;9.90;1.00
318;DHT22;146;53.448;10.228;2023-02-21T15:23:12;9.90;1.00
318;DHT22;146;53.448;10.228;2023-02-21T15:25:43;9.90;1.00
318;DHT22;146;53.448;10.228;2023-02-21T15:28:28;9.90;1.00
318;DHT22;146;53.448;10.228;2023-02-21T15:31:03;9.90;1.00
318;DHT22;146;53.448;10.228;2023-02-21T15:33:35;9.90;1.00
318;DHT22;146;53.448;10.228;2023-02-21T15:36:05;9.80;1.00
318;DHT22;146;53.448;10.228;2023-02-21T15:38:37;9.90;1.00
318;DHT22;146;53.448;10.228;2023-02-21T15:41:18;9.90;1.00
318;DHT22;146;53.448;10.228;2023-02-21T15:44:09;9.90;1.00
318;DHT22;146;53.448;10.228;2023-02-21T15:46:47;9.80;1.00
318;DHT22;146;53.448;10.228;2023-02-21T15:49:20;9.80;1.00
318;DHT22;146;53.448;10.228;2023-02-21T15:51:56;9.80;1.00
318;DHT22;146;53.448;10.228;2023-02-21T15:54:28;9.70;1.00
318;DHT22;146;53.448;10.228;2023-02-21T15:57:29;9.70;1.00
318;DHT22;146;53.448;10.228;2023-02-21T16:00:24;9.80;1.00
318;DHT22;146;53.448;10.228;2023-02-21T16:03:28;9.70;1.00
318;DHT22;146;53.448;10.228;2023-02-21T16:06:09;9.70;1.00
318;DHT22;146;53.448;10.228;2023-02-21T16:08:49;9.80;1.00
318;DHT22;146;53.448;10.228;2023-02-21T16:11:16;9.80;1.00
318;DHT22;146;53.448;10.228;2023-02-21T16:13:44;9.80;1.00
318;DHT22;146;53.448;10.228;2023-02-21T16:16:15;9.80;1.00
318;DHT22;146;53.448;10.228;2023-02-21T16:18:44;9.80;1.00
318;DHT22;146;53.448;10.228;2023-02-21T16:21:22;9.70;1.00
318;DHT22;146;53.448;10.228;2023-02-21T16:23:56;9.70;1.00
318;DHT22;146;53.448;10.228;2023-02-21T16:27:11;9.60;1.00
318;DHT22;146;53.448;10.228;2023-02-21T16:29:41;9.70;1.00
318;DHT22;146;53.448;10.228;2023-02-21T16:32:17;9.60;1.00
318;DHT22;146;53.448;10.228;2023-02-21T16:34:49;9.60;1.00
318;DHT22;146;53.448;10.228;2023-02-21T16:37:22;9.50;1.00
318;DHT22;146;53.448;10.228;2023-02-21T16:39:58;9.50;1.00
318;DHT22;146;53.448;10.228;2023-02-21T16:42:32;9.40;1.00
318;DHT22;146;53.448;10.228;2023-02-21T16:45:01;9.40;1.00
318;DHT22;146;53.448;10.228;2023-02-21T16:47:41;9.40;1.00
318;DHT22;146;53.448;10.228;2023-02-21T16:50:28;9.40;1.00
318;DHT22;146;53.448;10.228;2023-02-21T16:53:02;9.40;1.00
318;DHT22;146;53.448;10.228;2023-02-21T16:55:32;9.30;1.00
318;DHT22;146;53.448;10.228;2023-02-21T16:58:04;9.30;1.00
318;DHT22;146;53.448;10.228;2023-02-21T17:00:32;9.30;1.00
318;DHT22;146;53.448;10.228;2023-02-21T17:03:14;9.30;1.10
318;DHT22;146;53.448;10.228;2023-02-21T17:05:59;9.30;1.10
318;DHT22;146;53.448;10.228;2023-02-21T17:08:31;9.30;1.30
318;DHT22;146;53.448;10.228;2023-02-21T17:11:01;9.20;1.50
318;DHT22;146;53.448;10.228;2023-02-21T17:13:34;9.20;2.00
318;DHT22;146;53.448;10.228;2023-02-21T17:16:00;9.20;2.30
318;DHT22;146;53.448;10.228;2023-02-21T17:18:36;9.10;2.50
318;DHT22;146;53.448;10.228;2023-02-21T17:21:05;9.10;2.70
318;DHT22;146;53.448;10.228;2023-02-21T17:23:32;9.10;2.60
318;DHT22;146;53.448;10.228;2023-02-21T17:25:59;9.10;2.70
318;DHT22;146;53.448;10.228;2023-02-21T17:28:26;9.00;2.60
318;DHT22;146;53.448;10.228;2023-02-21T17:30:53;9.10;2.90
318;DHT22;146;53.448;10.228;2023-02-21T17:33:20;9.00;2.90
318;DHT22;146;53.448;10.228;2023-02-21T17:35:48;9.10;3.40
318;DHT22;146;53.448;10.228;2023-02-21T17:38:17;9.10;3.50
318;DHT22;146;53.448;10.228;2023-02-21T17:40:47;9.00;3.60
318;DHT22;146;53.448;10.228;2023-02-21T17:43:14;9.00;3.80
318;DHT22;146;53.448;10.228;2023-02-21T17:45:44;9.00;4.10
318;DHT22;146;53.448;10.228;2023-02-21T17:48:11;9.00;4.30
318;DHT22;146;53.448;10.228;2023-02-21T17:50:38;9.00;4.20
318;DHT22;146;53.448;10.228;2023-02-21T17:53:12;8.90;4.30
318;DHT22;146;53.448;10.228;2023-02-21T17:55:45;8.90;4.80
318;DHT22;146;53.448;10.228;2023-02-21T17:58:12;8.80;4.90
318;DHT22;146;53.448;10.228;2023-02-21T18:00:39;8.80;5.40
318;DHT22;146;53.448;10.228;2023-02-21T18:03:07;8.70;6.10
318;DHT22;146;53.448;10.228;2023-02-21T18:05:34;8.70;6.50
318;DHT22;146;53.448;10.228;2023-02-21T18:08:03;8.70;6.80
318;DHT22;146;53.448;10.228;2023-02-21T18:10:49;8.70;7.00
318;DHT22;146;53.448;10.228;2023-02-21T18:13:20;8.70;7.00
318;DHT22;146;53.448;10.228;2023-02-21T18:15:47;8.70;7.30
318;DHT22;146;53.448;10.228;2023-02-21T18:18:14;8.70;7.60
318;DHT22;146;53.448;10.228;2023-02-21T18:20:50;8.80;7.70
318;DHT22;146;53.448;10.228;2023-02-21T18:23:17;8.80;7.70
318;DHT22;146;53.448;10.228;2023-02-21T18:25:48;8.90;7.80
318;DHT22;146;53.448;10.228;2023-02-21T18:28:15;8.90;7.50
318;DHT22;146;53.448;10.228;2023-02-21T18:30:45;8.90;7.10
318;DHT22;146;53.448;10.228;2023-02-21T18:33:15;8.90;7.00
318;DHT22;146;53.448;10.228;2023-02-21T18:35:42;8.80;6.90
318;DHT22;146;53.448;10.228;2023-02-21T18:38:08;8.80;7.00
318;DHT22;146;53.448;10.228;2023-02-21T18:40:46;8.90;7.30
318;DHT22;146;53.448;10.228;2023-02-21T18:43:27;8.90;7.40